createdAt,value
2022-08-23T00:04:24.357Z,3.45
2022-08-23T00:14:41.853Z,3.50
2022-08-23T00:24:49.586Z,3.70
2022-08-23T00:34:54.135Z,3.55
2022-08-23T00:45:15.481Z,3.40
2022-08-23T00:55:22.139Z,3.67
2022-08-23T01:05:29.796Z,3.70
2022-08-23T01:15:37.479Z,4.20
2022-08-23T01:25:41.958Z,3.70
2022-08-23T01:35:50.291Z,3.78
2022-08-23T01:45:56.015Z,3.65
2022-08-23T01:56:01.718Z,3.60
2022-08-23T02:06:07.201Z,3.80
2022-08-23T02:16:10.274Z,3.40
2022-08-23T02:26:19.457Z,3.47
2022-08-23T02:36:22.746Z,3.38
2022-08-23T02:46:27.589Z,3.63
2022-08-23T02:56:30.775Z,3.38
2022-08-23T03:06:35.223Z,3.50
2022-08-23T03:16:38.261Z,3.72
2022-08-23T03:26:45.753Z,3.70
2022-08-23T03:36:48.819Z,3.60
2022-08-23T03:46:53.255Z,3.67
2022-08-23T03:57:00.495Z,3.58
2022-08-23T04:07:04.961Z,3.53
2022-08-23T04:17:08.191Z,3.80
2022-08-23T04:27:13.404Z,3.42
2022-08-23T04:37:17.839Z,3.72
2022-08-23T04:47:22.323Z,3.78
2022-08-23T04:57:25.561Z,3.72
2022-08-23T05:07:42.201Z,4.22
2022-08-23T05:17:46.305Z,4.20
2022-08-23T05:27:50.754Z,3.83
2022-08-23T05:37:53.855Z,4.07
2022-08-23T05:47:58.315Z,4.10
2022-08-23T05:58:02.270Z,3.72
2022-08-23T06:08:06.903Z,4.05
2022-08-23T06:18:09.941Z,3.47
2022-08-23T06:28:15.117Z,3.83
2022-08-23T06:38:18.915Z,3.65
2022-08-23T06:48:23.351Z,3.47
2022-08-23T06:58:26.403Z,3.22
2022-08-23T07:08:30.816Z,3.53
2022-08-23T07:18:34.058Z,3.60
2022-08-23T07:28:39.191Z,3.22
2022-08-23T07:38:42.764Z,3.22
2022-08-23T07:48:55.121Z,3.20
2022-08-23T07:58:58.674Z,3.50
2022-08-23T08:09:03.845Z,2.83
2022-08-23T08:19:09.421Z,3.03
2022-08-23T08:29:14.739Z,3.20
2022-08-23T08:39:20.822Z,3.08
2022-08-23T08:49:36.120Z,3.20
2022-08-23T08:59:49.221Z,3.55
2022-08-23T09:10:22.780Z,3.55
2022-08-23T09:20:32.945Z,3.95
2022-08-23T09:30:54.064Z,3.92
2022-08-23T09:40:58.514Z,3.95
2022-08-23T09:51:11.212Z,3.97
2022-08-23T10:01:21.697Z,5.82
2022-08-23T10:11:30.319Z,6.20
2022-08-23T10:21:41.948Z,4.57
2022-08-23T10:31:59.162Z,4.05
2022-08-23T10:42:09.011Z,4.15
2022-08-23T10:52:19.149Z,5.53
2022-08-23T11:02:39.548Z,2.70
2022-08-23T11:12:55.811Z,2.72
2022-08-23T11:23:15.837Z,2.88
2022-08-23T11:33:24.665Z,2.63
2022-08-23T11:43:35.101Z,3.08
2022-08-23T11:54:07.456Z,2.40
2022-08-23T12:04:15.141Z,2.20
2022-08-23T12:14:49.558Z,2.00
2022-08-23T12:24:56.972Z,2.30
2022-08-23T12:35:18.877Z,2.30
2022-08-23T12:45:23.753Z,2.10
2022-08-23T12:55:33.333Z,1.98
2022-08-23T13:05:41.394Z,2.67
2022-08-23T13:15:52.993Z,1.95
2022-08-23T13:25:56.151Z,1.80
2022-08-23T13:36:13.432Z,2.30
2022-08-23T13:46:19.234Z,2.03
2022-08-23T13:56:24.810Z,2.10
2022-08-23T14:06:27.876Z,1.88
2022-08-23T14:16:39.242Z,2.22
2022-08-23T14:26:50.302Z,2.03
2022-08-23T14:47:20.216Z,1.70
2022-08-23T14:57:24.625Z,1.90
2022-08-23T15:07:27.707Z,1.77
2022-08-23T15:17:32.152Z,2.03
2022-08-23T15:27:35.256Z,1.88
2022-08-23T15:37:40.226Z,2.00
2022-08-23T15:47:49.522Z,2.20
2022-08-23T15:57:55.427Z,2.20
2022-08-23T16:07:59.682Z,1.80
2022-08-23T16:18:04.334Z,1.63
2022-08-23T16:28:07.953Z,1.50
2022-08-23T16:38:12.402Z,1.60
2022-08-23T16:48:15.512Z,1.67
2022-08-23T16:58:20.510Z,1.67
2022-08-23T17:08:23.633Z,1.70
2022-08-23T17:18:28.617Z,1.52
2022-08-23T17:28:31.779Z,2.00
2022-08-23T17:38:36.956Z,2.10
2022-08-23T17:48:40.047Z,1.83
2022-08-23T17:58:44.460Z,1.90
2022-08-23T18:08:48.223Z,2.10
2022-08-23T18:18:52.673Z,2.72
2022-08-23T18:28:55.776Z,1.83
2022-08-23T18:39:00.208Z,1.63
2022-08-23T18:49:04.017Z,2.05
2022-08-23T18:59:08.488Z,1.73
2022-08-23T19:09:13.097Z,2.05
2022-08-23T19:19:18.712Z,1.80
2022-08-23T19:29:21.987Z,1.67
2022-08-23T19:39:27.841Z,2.05
2022-08-23T19:49:32.367Z,1.58
2022-08-23T19:59:40.326Z,1.70
2022-08-23T20:09:43.364Z,1.98
2022-08-23T20:19:48.033Z,2.17
2022-08-23T20:29:51.075Z,2.10
2022-08-23T20:39:55.571Z,2.30
2022-08-23T20:49:58.666Z,2.30
2022-08-23T21:00:03.211Z,2.33
2022-08-23T21:10:07.047Z,2.67
2022-08-23T21:20:12.194Z,2.40
2022-08-23T21:30:16.309Z,2.60
2022-08-23T21:40:20.940Z,2.80
2022-08-23T21:50:24.565Z,2.60
2022-08-23T22:00:33.301Z,2.53
2022-08-23T22:10:37.425Z,2.70
2022-08-23T22:20:41.847Z,2.92
2022-08-23T22:30:44.999Z,3.63
2022-08-23T22:40:50.475Z,3.58
2022-08-23T22:51:06.253Z,2.92
2022-08-23T23:01:12.948Z,2.83
2022-08-23T23:11:17.732Z,3.20
2022-08-23T23:21:22.126Z,3.13
2022-08-23T23:31:25.197Z,2.90
2022-08-23T23:41:29.741Z,3.00
2022-08-23T23:51:34.043Z,3.22
